createdAt,value
2018-09-15T00:00:47.707Z,72.63
2018-09-15T00:03:15.799Z,72.82
2018-09-15T00:05:43.896Z,73.46
2018-09-15T00:08:11.967Z,74.58
2018-09-15T00:10:40.062Z,73.60
2018-09-15T00:13:08.130Z,72.69
2018-09-15T00:15:36.198Z,72.40
2018-09-15T00:18:06.489Z,72.83
2018-09-15T00:20:34.564Z,72.87
2018-09-15T00:23:02.667Z,73.11
2018-09-15T00:25:30.768Z,72.43
2018-09-15T00:27:58.869Z,72.43
2018-09-15T00:30:26.921Z,72.54
2018-09-15T00:32:54.989Z,72.70
2018-09-15T00:35:23.131Z,72.24
2018-09-15T00:37:51.367Z,73.53
2018-09-15T00:40:19.537Z,72.96
2018-09-15T00:42:47.832Z,72.81
2018-09-15T00:45:15.919Z,72.44
2018-09-15T00:47:44.013Z,72.73
2018-09-15T00:50:12.062Z,73.38
2018-09-15T00:52:40.150Z,72.94
2018-09-15T00:55:08.211Z,72.67
2018-09-15T00:57:36.297Z,73.10
2018-09-15T01:00:05.642Z,72.66
2018-09-15T01:02:33.736Z,73.38
2018-09-15T01:05:01.815Z,73.65
2018-09-15T01:07:29.883Z,74.47
2018-09-15T01:09:57.956Z,73.69
2018-09-15T01:12:26.081Z,74.37
2018-09-15T01:14:54.126Z,73.68
2018-09-15T01:17:22.197Z,74.33
2018-09-15T01:19:50.315Z,73.70
2018-09-15T01:22:18.394Z,73.58
2018-09-15T01:24:46.661Z,73.51
2018-09-15T01:27:14.955Z,74.15
2018-09-15T01:29:43.049Z,75.75
2018-09-15T01:32:11.162Z,75.79
2018-09-15T01:34:39.292Z,77.13
2018-09-15T01:37:07.370Z,77.69
2018-09-15T01:39:35.476Z,77.31
2018-09-15T01:42:03.607Z,77.85
2018-09-15T01:44:31.676Z,77.33
2018-09-15T01:46:59.737Z,77.32
2018-09-15T01:49:27.817Z,76.91
2018-09-15T01:51:55.887Z,76.45
2018-09-15T01:54:23.965Z,75.82
2018-09-15T01:56:52.058Z,75.98
2018-09-15T01:59:20.151Z,75.14
2018-09-15T02:01:48.213Z,74.57
2018-09-15T02:04:16.266Z,74.92
2018-09-15T02:06:44.322Z,74.78
2018-09-15T02:09:14.005Z,75.07
2018-09-15T02:11:42.154Z,74.89
2018-09-15T02:14:10.314Z,74.62
2018-09-15T02:16:38.374Z,75.21
2018-09-15T02:19:06.467Z,75.29
2018-09-15T02:21:34.551Z,74.50
2018-09-15T02:24:02.659Z,75.15
2018-09-15T02:26:30.703Z,77.29
2018-09-15T02:28:58.809Z,76.85
2018-09-15T02:31:26.860Z,76.61
2018-09-15T02:33:54.968Z,77.13
2018-09-15T02:36:23.112Z,77.52
2018-09-15T02:38:51.269Z,77.61
2018-09-15T02:41:19.335Z,77.42
2018-09-15T02:43:47.560Z,77.76
2018-09-15T02:46:16.028Z,76.89
2018-09-15T02:48:44.371Z,78.17
2018-09-15T02:51:12.492Z,77.70
2018-09-15T02:53:40.908Z,77.51
2018-09-15T02:56:08.991Z,78.49
2018-09-15T02:58:37.031Z,78.07
2018-09-15T03:01:05.095Z,78.62
2018-09-15T03:03:33.185Z,78.90
2018-09-15T03:06:01.261Z,78.97
2018-09-15T03:08:29.324Z,79.83
2018-09-15T03:10:57.395Z,79.68
2018-09-15T03:13:25.489Z,79.12
2018-09-15T03:15:53.525Z,79.00
2018-09-15T03:18:21.590Z,78.84
2018-09-15T03:20:49.671Z,78.11
2018-09-15T03:23:17.719Z,78.10
2018-09-15T03:25:45.787Z,78.49
2018-09-15T03:28:13.867Z,78.10
2018-09-15T03:30:41.979Z,77.46
2018-09-15T03:33:10.257Z,76.78
2018-09-15T03:35:38.357Z,77.14
2018-09-15T03:38:06.508Z,77.60
2018-09-15T03:40:34.610Z,77.82
2018-09-15T03:43:02.663Z,78.50
2018-09-15T03:45:30.735Z,78.31
2018-09-15T03:47:58.802Z,77.86
2018-09-15T03:50:26.881Z,77.78
2018-09-15T03:52:55.028Z,78.42
2018-09-15T03:55:23.079Z,78.35
2018-09-15T03:57:51.192Z,79.10
2018-09-15T04:00:19.252Z,79.11
2018-09-15T04:02:47.349Z,79.28
2018-09-15T04:05:15.416Z,78.34
2018-09-15T04:07:43.491Z,78.80
2018-09-15T04:10:11.591Z,79.20
2018-09-15T04:12:39.727Z,78.85
2018-09-15T04:15:07.799Z,79.62
2018-09-15T04:17:35.874Z,78.90
2018-09-15T04:20:03.960Z,79.93
2018-09-15T04:22:32.028Z,80.75
2018-09-15T04:25:00.089Z,80.66
2018-09-15T04:27:28.198Z,80.04
2018-09-15T04:29:56.287Z,81.19
2018-09-15T04:32:24.552Z,81.11
2018-09-15T04:34:52.784Z,81.78
2018-09-15T04:37:20.883Z,82.51
2018-09-15T04:39:48.949Z,82.75
2018-09-15T04:42:17.104Z,81.72
2018-09-15T04:44:45.195Z,81.22
2018-09-15T04:47:13.267Z,81.07
2018-09-15T04:49:41.319Z,81.14
2018-09-15T04:52:09.390Z,80.81
2018-09-15T04:54:37.462Z,81.98
2018-09-15T04:57:05.614Z,82.20
2018-09-15T04:59:33.713Z,81.79
2018-09-15T05:02:01.823Z,81.64
2018-09-15T05:04:29.878Z,80.46
2018-09-15T05:06:57.953Z,81.68
2018-09-15T05:09:26.019Z,81.99
2018-09-15T05:11:54.087Z,82.39
2018-09-15T05:14:22.166Z,82.37
2018-09-15T05:16:50.242Z,83.21
2018-09-15T05:19:18.320Z,83.41
2018-09-15T05:21:46.412Z,83.02
2018-09-15T05:24:14.567Z,83.81
2018-09-15T05:26:42.661Z,83.84
2018-09-15T05:29:10.788Z,83.42
2018-09-15T05:31:38.962Z,82.85
2018-09-15T05:34:07.024Z,83.51
2018-09-15T05:36:35.258Z,82.86
2018-09-15T05:39:03.499Z,83.41
2018-09-15T05:41:31.607Z,82.90
2018-09-15T05:43:59.703Z,82.37
2018-09-15T05:46:27.764Z,82.59
2018-09-15T05:48:55.889Z,82.20
2018-09-15T05:51:23.956Z,81.97
2018-09-15T05:53:52.031Z,81.52
2018-09-15T05:56:20.091Z,81.19
2018-09-15T05:58:48.271Z,81.35
2018-09-15T06:01:16.338Z,80.93
2018-09-15T06:03:44.411Z,80.22
2018-09-15T06:06:12.479Z,80.10
2018-09-15T06:08:40.563Z,80.03
2018-09-15T06:11:08.640Z,78.94
2018-09-15T06:13:36.821Z,79.00
2018-09-15T06:16:04.851Z,79.49
2018-09-15T06:18:33.098Z,79.49
2018-09-15T06:21:01.388Z,79.83
2018-09-15T06:23:29.589Z,79.75
2018-09-15T06:25:57.816Z,79.49
2018-09-15T06:28:26.582Z,78.88
2018-09-15T06:30:55.130Z,78.37
2018-09-15T06:33:23.390Z,77.98
2018-09-15T06:35:51.708Z,77.44
2018-09-15T06:38:19.916Z,78.08
2018-09-15T06:40:48.413Z,77.68
2018-09-15T06:43:16.866Z,77.42
2018-09-15T06:45:45.218Z,76.71
2018-09-15T06:48:13.584Z,77.08
2018-09-15T06:50:41.788Z,76.19
2018-09-15T06:53:10.025Z,76.11
2018-09-15T06:55:38.645Z,76.20
2018-09-15T06:58:08.664Z,76.24
2018-09-15T07:00:37.744Z,75.27
2018-09-15T07:03:06.015Z,75.18
2018-09-15T07:05:34.302Z,74.25
2018-09-15T07:08:02.542Z,75.06
2018-09-15T07:10:30.810Z,73.98
2018-09-15T07:12:59.324Z,73.15
2018-09-15T07:15:27.381Z,73.01
2018-09-15T07:17:55.765Z,72.47
2018-09-15T07:20:24.178Z,72.46
2018-09-15T07:22:52.748Z,72.06
2018-09-15T07:25:20.933Z,71.63
2018-09-15T07:27:49.467Z,70.39
2018-09-15T07:30:18.070Z,70.80
2018-09-15T07:32:47.395Z,69.72
2018-09-15T07:35:15.617Z,70.08
2018-09-15T07:37:45.158Z,68.67
2018-09-15T07:40:13.806Z,67.89
2018-09-15T07:42:42.051Z,68.28
2018-09-15T07:45:10.231Z,67.66
2018-09-15T07:47:38.535Z,66.91
2018-09-15T07:50:06.799Z,67.48
2018-09-15T08:06:50.408Z,64.58
2018-09-15T08:09:18.490Z,64.34
2018-09-15T08:11:46.572Z,64.56
2018-09-15T08:14:14.700Z,63.92
2018-09-15T08:16:42.775Z,64.70
2018-09-15T08:19:10.836Z,62.89
2018-09-15T08:21:38.946Z,63.36
2018-09-15T08:24:07.092Z,61.77
2018-09-15T08:26:35.246Z,62.07
2018-09-15T08:29:03.275Z,61.29
2018-09-15T08:31:31.338Z,61.43
2018-09-15T08:33:59.414Z,61.37
2018-09-15T08:36:27.527Z,61.44
2018-09-15T08:38:55.604Z,60.92
2018-09-15T08:41:23.749Z,60.58
2018-09-15T08:43:51.813Z,61.13
2018-09-15T08:46:19.904Z,60.42
2018-09-15T08:48:48.020Z,60.93
2018-09-15T08:51:16.092Z,59.72
2018-09-15T08:53:44.255Z,60.60
2018-09-15T08:56:12.431Z,59.47
2018-09-15T08:58:40.461Z,60.47
2018-09-15T09:01:08.572Z,59.86
2018-09-15T09:03:36.684Z,59.09
2018-09-15T09:06:04.768Z,58.89
2018-09-15T09:08:32.886Z,58.59
2018-09-15T09:11:00.971Z,58.86
2018-09-15T09:13:29.058Z,58.13
2018-09-15T09:15:57.139Z,57.06
2018-09-15T09:18:25.223Z,57.75
2018-09-15T09:20:53.414Z,56.90
2018-09-15T09:23:21.499Z,55.70
2018-09-15T09:25:49.622Z,54.75
2018-09-15T09:28:17.850Z,54.83
2018-09-15T09:30:46.026Z,55.25
2018-09-15T09:33:14.190Z,54.32
2018-09-15T09:35:42.193Z,52.56
2018-09-15T09:38:10.317Z,52.81
2018-09-15T09:40:38.355Z,52.71
2018-09-15T09:43:06.439Z,52.44
2018-09-15T09:45:34.543Z,52.48
2018-09-15T09:48:02.704Z,51.97
2018-09-15T09:50:30.731Z,53.63
2018-09-15T09:52:58.783Z,51.59
2018-09-15T09:55:26.862Z,52.20
2018-09-15T09:57:54.950Z,52.33
2018-09-15T10:00:28.475Z,51.55
2018-09-15T10:02:56.540Z,51.06
2018-09-15T10:05:24.696Z,50.55
2018-09-15T10:07:52.759Z,49.46
2018-09-15T10:10:20.860Z,50.09
2018-09-15T10:12:48.957Z,49.62
2018-09-15T10:15:17.059Z,47.54
2018-09-15T10:17:45.134Z,48.10
2018-09-15T10:20:13.451Z,49.31
2018-09-15T10:22:41.576Z,48.17
2018-09-15T10:25:09.641Z,48.38
2018-09-15T10:27:37.696Z,49.56
2018-09-15T10:30:05.770Z,48.34
2018-09-15T10:32:33.855Z,47.64
2018-09-15T10:35:01.956Z,48.70
2018-09-15T10:37:30.027Z,48.55
2018-09-15T10:39:58.111Z,48.24
2018-09-15T10:42:26.191Z,47.33
2018-09-15T10:44:54.297Z,46.51
2018-09-15T10:47:22.443Z,46.38
2018-09-15T10:49:50.543Z,44.75
2018-09-15T10:52:18.718Z,45.31
2018-09-15T10:54:46.789Z,45.52
2018-09-15T10:57:14.863Z,44.66
2018-09-15T10:59:43.056Z,45.78
2018-09-15T11:02:12.964Z,45.09
2018-09-15T11:04:41.731Z,45.37
2018-09-15T11:07:09.818Z,43.29
2018-09-15T11:09:37.911Z,43.95
2018-09-15T11:12:06.129Z,43.13
2018-09-15T11:14:34.268Z,42.27
2018-09-15T11:17:02.374Z,42.39
2018-09-15T11:19:30.721Z,43.80
2018-09-15T11:21:58.839Z,42.98
2018-09-15T11:24:27.019Z,42.28
2018-09-15T11:26:55.371Z,42.68
2018-09-15T11:29:23.451Z,42.50
2018-09-15T11:31:51.535Z,41.85
2018-09-15T11:34:19.627Z,41.32
2018-09-15T11:36:47.699Z,43.16
2018-09-15T11:39:15.781Z,41.05
2018-09-15T11:41:43.863Z,41.63
2018-09-15T11:44:12.028Z,39.65
2018-09-15T11:46:40.120Z,39.80
2018-09-15T11:49:08.184Z,39.67
2018-09-15T11:51:36.268Z,41.47
2018-09-15T11:54:04.327Z,39.24
2018-09-15T11:56:32.403Z,39.67
2018-09-15T11:59:00.502Z,39.76
2018-09-15T12:01:28.637Z,39.07
2018-09-15T12:03:56.725Z,40.19
2018-09-15T12:06:24.800Z,39.69
2018-09-15T12:08:52.892Z,39.27
2018-09-15T12:11:20.986Z,40.26
2018-09-15T12:13:49.067Z,38.97
2018-09-15T12:16:17.243Z,39.35
2018-09-15T12:18:45.380Z,38.64
2018-09-15T12:21:13.513Z,39.05
2018-09-15T12:23:41.575Z,41.21
2018-09-15T12:26:09.655Z,41.16
2018-09-15T12:28:37.734Z,40.56
2018-09-15T12:31:06.123Z,39.24
2018-09-15T12:33:34.248Z,39.92
2018-09-15T12:37:34.075Z,40.13
2018-09-15T12:40:02.147Z,40.36
2018-09-15T12:42:30.297Z,39.81
2018-09-15T12:44:58.484Z,39.59
2018-09-15T12:47:26.528Z,39.28
2018-09-15T12:49:54.944Z,39.03
2018-09-15T12:52:23.206Z,38.61
2018-09-15T12:54:51.891Z,38.85
2018-09-15T12:57:20.152Z,38.96
2018-09-15T12:59:48.289Z,39.38
2018-09-15T13:02:16.446Z,40.27
2018-09-15T13:04:44.533Z,38.29
2018-09-15T13:07:12.656Z,39.88
2018-09-15T13:09:40.762Z,39.59
2018-09-15T13:12:08.998Z,39.99
2018-09-15T13:14:37.012Z,39.71
2018-09-15T13:17:05.215Z,40.46
2018-09-15T13:19:33.295Z,39.46
2018-09-15T13:22:01.415Z,39.88
2018-09-15T13:24:29.540Z,38.92
2018-09-15T13:26:57.621Z,39.25
2018-09-15T13:29:25.803Z,39.22
2018-09-15T13:31:53.791Z,40.41
2018-09-15T13:34:21.896Z,41.18
2018-09-15T13:36:49.994Z,40.73
2018-09-15T13:39:18.065Z,39.42
2018-09-15T13:41:46.179Z,39.42
2018-09-15T13:44:14.275Z,40.33
2018-09-15T13:46:42.383Z,40.41
2018-09-15T13:49:10.468Z,40.20
2018-09-15T13:51:38.527Z,40.82
2018-09-15T13:54:06.695Z,38.68
2018-09-15T13:56:34.811Z,39.89
2018-09-15T13:59:02.941Z,39.65
2018-09-15T14:01:31.012Z,39.16
2018-09-15T14:03:59.099Z,38.95
2018-09-15T14:06:27.222Z,38.90
2018-09-15T14:08:55.317Z,39.52
2018-09-15T14:11:23.434Z,39.30
2018-09-15T14:13:51.491Z,38.26
2018-09-15T14:16:19.590Z,38.34
2018-09-15T14:18:47.738Z,39.04
2018-09-15T14:21:15.828Z,38.02
2018-09-15T14:23:43.905Z,38.05
2018-09-15T14:26:12.240Z,38.37
2018-09-15T14:28:40.648Z,38.65
2018-09-15T14:31:08.759Z,39.55
2018-09-15T14:33:36.815Z,38.73
2018-09-15T14:36:04.917Z,38.52
2018-09-15T14:38:33.052Z,37.99
2018-09-15T14:41:01.095Z,38.24
2018-09-15T14:43:29.171Z,39.25
2018-09-15T14:45:57.424Z,38.93
2018-09-15T14:48:25.569Z,39.11
2018-09-15T14:50:53.631Z,39.42
2018-09-15T14:53:21.703Z,39.67
2018-09-15T14:55:49.810Z,39.64
2018-09-15T14:58:17.949Z,39.43
2018-09-15T15:00:46.094Z,39.60
2018-09-15T15:03:14.661Z,39.36
2018-09-15T15:05:42.792Z,39.96
2018-09-15T15:08:10.867Z,39.43
2018-09-15T15:10:39.007Z,39.31
2018-09-15T15:13:07.061Z,39.73
2018-09-15T15:15:35.136Z,39.27
2018-09-15T15:18:03.229Z,39.30
2018-09-15T15:20:31.300Z,38.97
2018-09-15T15:22:59.371Z,39.12
2018-09-15T15:25:27.461Z,39.51
2018-09-15T15:27:55.519Z,40.55
2018-09-15T15:30:23.587Z,39.99
2018-09-15T15:32:51.656Z,39.20
2018-09-15T15:35:19.774Z,39.42
2018-09-15T15:37:47.881Z,39.21
2018-09-15T15:40:15.939Z,38.70
2018-09-15T15:42:44.058Z,38.25
2018-09-15T15:45:12.168Z,38.21
2018-09-15T15:47:40.255Z,38.45
2018-09-15T15:50:08.346Z,38.86
2018-09-15T15:52:36.459Z,39.00
2018-09-15T15:55:04.623Z,39.78
2018-09-15T15:57:32.768Z,40.23
2018-09-15T16:00:00.860Z,40.75
2018-09-15T16:02:28.935Z,40.14
2018-09-15T16:04:57.049Z,40.93
2018-09-15T16:07:25.675Z,40.87
2018-09-15T16:09:54.568Z,40.42
2018-09-15T16:12:23.513Z,40.71
2018-09-15T16:14:52.105Z,40.88
2018-09-15T16:17:32.918Z,41.22
2018-09-15T16:20:01.344Z,41.41
2018-09-15T16:22:29.626Z,41.22
2018-09-15T16:24:57.925Z,41.34
2018-09-15T16:27:26.197Z,41.80
2018-09-15T16:29:54.598Z,41.74
2018-09-15T16:32:23.012Z,42.28
2018-09-15T16:34:51.371Z,42.74
2018-09-15T16:37:19.632Z,42.18
2018-09-15T16:39:47.905Z,42.31
2018-09-15T16:42:16.445Z,42.50
2018-09-15T16:44:44.509Z,41.98
2018-09-15T16:47:12.691Z,42.55
2018-09-15T16:49:40.763Z,42.99
2018-09-15T16:52:08.887Z,42.53
2018-09-15T16:54:36.994Z,43.09
2018-09-15T16:57:05.187Z,43.44
2018-09-15T16:59:33.211Z,43.58
2018-09-15T17:02:01.288Z,43.54
2018-09-15T17:04:29.415Z,44.79
2018-09-15T17:08:00.319Z,45.40
2018-09-15T17:10:28.443Z,44.92
2018-09-15T17:12:56.536Z,47.76
2018-09-15T17:15:24.615Z,47.88
2018-09-15T17:17:52.707Z,49.66
2018-09-15T17:20:20.793Z,47.22
2018-09-15T17:22:49.239Z,46.53
2018-09-15T17:25:17.319Z,47.07
2018-09-15T17:27:45.460Z,46.92
2018-09-15T17:30:13.576Z,47.58
2018-09-15T17:32:41.759Z,47.21
2018-09-15T17:35:09.837Z,47.75
2018-09-15T17:37:38.063Z,47.96
2018-09-15T17:40:06.307Z,50.16
2018-09-15T17:42:34.432Z,50.02
2018-09-15T17:45:02.586Z,48.79
2018-09-15T17:47:30.603Z,48.35
2018-09-15T17:49:58.688Z,50.36
2018-09-15T17:52:26.763Z,51.02
2018-09-15T17:54:54.932Z,50.53
2018-09-15T17:57:22.920Z,51.51
2018-09-15T17:59:51.003Z,51.62
2018-09-15T18:02:19.134Z,50.96
2018-09-15T18:04:47.296Z,52.76
2018-09-15T18:07:15.371Z,54.17
2018-09-15T18:09:43.856Z,53.44
2018-09-15T18:12:11.872Z,53.88
2018-09-15T18:14:40.156Z,53.76
2018-09-15T18:17:08.339Z,54.19
2018-09-15T18:19:36.448Z,54.67
2018-09-15T18:22:04.650Z,55.90
2018-09-15T18:24:32.659Z,55.98
2018-09-15T18:27:00.753Z,56.48
2018-09-15T18:29:28.895Z,55.75
2018-09-15T18:31:56.995Z,55.92
2018-09-15T18:34:25.083Z,56.71
2018-09-15T18:36:53.429Z,57.42
2018-09-15T18:39:21.265Z,58.47
2018-09-15T18:41:49.344Z,58.83
2018-09-15T18:44:17.469Z,59.40
2018-09-15T18:46:45.566Z,59.76
2018-09-15T18:49:13.671Z,59.45
2018-09-15T18:51:41.811Z,60.27
2018-09-15T18:54:09.944Z,60.58
2018-09-15T18:56:38.060Z,60.35
2018-09-15T18:59:06.179Z,60.47
2018-09-15T19:01:34.327Z,61.08
2018-09-15T19:04:02.417Z,60.52
2018-09-15T19:06:30.790Z,60.44
2018-09-15T19:08:59.097Z,62.04
2018-09-15T19:11:27.450Z,61.44
2018-09-15T19:13:55.720Z,62.15
2018-09-15T19:16:23.941Z,61.79
2018-09-15T19:18:52.282Z,62.04
2018-09-15T19:21:21.361Z,62.14
2018-09-15T19:23:49.644Z,61.52
2018-09-15T19:26:18.015Z,61.93
2018-09-15T19:28:53.476Z,61.79
2018-09-15T19:31:21.751Z,61.95
2018-09-15T19:33:50.369Z,62.20
2018-09-15T19:36:18.672Z,62.06
2018-09-15T19:38:47.447Z,63.76
2018-09-15T19:41:16.732Z,64.33
2018-09-15T19:43:44.938Z,64.74
2018-09-15T19:46:13.147Z,64.59
2018-09-15T19:48:41.451Z,64.95
2018-09-15T19:51:09.630Z,65.15
2018-09-15T19:53:37.878Z,64.54
2018-09-15T19:56:06.209Z,64.53
2018-09-15T19:58:35.066Z,65.28
2018-09-15T20:01:03.358Z,66.21
2018-09-15T20:03:31.545Z,67.38
2018-09-15T20:05:59.754Z,67.31
2018-09-15T20:08:28.566Z,66.90
2018-09-15T20:10:56.852Z,67.44
2018-09-15T20:13:25.504Z,68.13
2018-09-15T20:15:52.643Z,67.51
2018-09-15T20:18:20.210Z,67.94
2018-09-15T20:20:47.408Z,67.88
2018-09-15T20:23:15.689Z,69.02
2018-09-15T20:25:44.120Z,69.37
2018-09-15T20:28:12.404Z,69.06
2018-09-15T20:30:40.704Z,67.95
2018-09-15T20:33:09.237Z,68.41
2018-09-15T20:35:37.513Z,68.15
2018-09-15T20:38:09.809Z,69.01
2018-09-15T20:40:38.119Z,69.33
2018-09-15T20:43:07.260Z,70.44
2018-09-15T20:48:32.754Z,71.00
2018-09-15T20:51:02.331Z,71.00
2018-09-15T20:53:31.008Z,70.25
2018-09-15T20:55:59.196Z,70.43
2018-09-15T20:58:27.581Z,69.59
2018-09-15T21:00:55.777Z,69.10
2018-09-15T21:03:24.135Z,70.08
2018-09-15T21:05:52.658Z,69.87
2018-09-15T21:08:20.852Z,70.58
2018-09-15T21:10:49.032Z,70.82
2018-09-15T21:13:17.280Z,69.91
2018-09-15T21:15:45.906Z,71.09
2018-09-15T21:18:15.100Z,70.52
2018-09-15T21:20:44.376Z,70.83
2018-09-15T21:23:12.629Z,71.21
2018-09-15T21:25:40.915Z,70.93
2018-09-15T21:28:09.122Z,70.24
2018-09-15T21:30:37.341Z,71.03
2018-09-15T21:33:05.699Z,72.05
2018-09-15T21:35:33.940Z,71.96
2018-09-15T21:38:02.143Z,72.98
2018-09-15T21:40:30.375Z,72.84
2018-09-15T21:42:58.593Z,72.32
2018-09-15T21:45:26.890Z,72.86
2018-09-15T21:47:55.040Z,73.45
2018-09-15T21:50:23.321Z,74.47
2018-09-15T21:52:51.619Z,74.89
2018-09-15T21:55:19.900Z,74.38
2018-09-15T21:57:49.666Z,73.82
2018-09-15T22:00:17.911Z,73.65
2018-09-15T22:02:47.026Z,74.87
2018-09-15T22:05:15.328Z,74.37
2018-09-15T22:07:43.731Z,74.46
2018-09-15T22:10:12.195Z,74.84
2018-09-15T22:12:40.457Z,74.76
2018-09-15T22:15:14.075Z,73.77
2018-09-15T22:17:43.527Z,75.07
2018-09-15T22:20:12.644Z,75.45
2018-09-15T22:22:42.677Z,76.52
2018-09-15T22:25:12.425Z,77.44
2018-09-15T22:27:40.682Z,76.74
2018-09-15T22:30:09.741Z,77.06
2018-09-15T22:32:37.949Z,77.08
2018-09-15T22:35:06.234Z,75.98
2018-09-15T22:37:34.698Z,75.26
2018-09-15T22:40:03.227Z,74.74
2018-09-15T22:42:32.470Z,76.53
2018-09-15T22:45:01.325Z,77.20
2018-09-15T22:47:30.509Z,78.10
2018-09-15T22:49:58.655Z,78.71
2018-09-15T22:52:26.935Z,77.64
2018-09-15T22:54:55.136Z,77.57
2018-09-15T22:57:23.389Z,77.29
2018-09-15T22:59:51.606Z,78.04
2018-09-15T23:02:19.791Z,79.37
2018-09-15T23:04:48.282Z,79.64
2018-09-15T23:07:16.511Z,80.25
2018-09-15T23:09:45.071Z,80.42
2018-09-15T23:12:13.573Z,80.44
2018-09-15T23:14:42.164Z,79.72
2018-09-15T23:17:10.413Z,78.72
2018-09-15T23:19:38.708Z,78.21
2018-09-15T23:22:07.587Z,78.49
2018-09-15T23:24:35.842Z,78.85
2018-09-15T23:27:04.421Z,77.84
2018-09-15T23:29:33.540Z,79.07
2018-09-15T23:32:01.777Z,78.75
2018-09-15T23:34:29.886Z,79.55
2018-09-15T23:36:58.012Z,79.85
2018-09-15T23:39:26.115Z,79.75
2018-09-15T23:41:54.196Z,80.18
2018-09-15T23:44:22.329Z,81.26
2018-09-15T23:46:50.464Z,80.54
2018-09-15T23:49:18.600Z,80.07
2018-09-15T23:51:46.734Z,79.38
2018-09-15T23:54:14.821Z,80.20
2018-09-15T23:56:42.903Z,80.12
2018-09-15T23:59:10.967Z,80.46
